Pine Bush, New York
Current Conditions -  °F | °C
As of 8:54 PM on Thursday 20 Nov 2014 (Local Time) from KMGJ Reporting Station
Clear Clear  
Wind Chill: 23°   Ceiling: Unl
Heat Index: 31°   Visibility: 10mi
Dew Point:   Wind: 8mph
Humidity: 40%   Direction: 280°W
Pressure: 29.94"   Gusts: NA
Location:  41.61°N, 74.3°W
Report Text: KMGJ 210154Z AUTO 28007KT 10SM CLR M01/M13 A2994 RMK AO2 SLP143 T10061128 PWINO FZRANO TSNO
Loading
Personal Weather Stations






























Interactive Weather Map New forecast layout! Learn more

10-Day Weather Forecast

Advertisements
Track Severe Weather on mobile